createdAt,value
2022-08-04T00:01:03.893Z,22.80
2022-08-04T00:03:42.081Z,22.80
2022-08-04T00:06:15.836Z,22.90
2022-08-04T00:08:47.829Z,22.50
2022-08-04T00:11:17.638Z,22.50
2022-08-04T00:14:03.206Z,22.70
2022-08-04T00:16:37.800Z,22.50
2022-08-04T00:19:12.651Z,23.50
2022-08-04T00:21:47.254Z,22.50
2022-08-04T00:24:22.381Z,22.40
2022-08-04T00:26:53.347Z,22.20
2022-08-04T00:29:22.435Z,21.80
2022-08-04T00:31:54.946Z,22.30
2022-08-04T00:34:27.263Z,21.90
2022-08-04T00:36:56.641Z,22.10
2022-08-04T00:39:27.500Z,22.20
2022-08-04T00:42:20.995Z,21.80
2022-08-04T00:45:01.288Z,21.90
2022-08-04T00:47:51.223Z,22.20
2022-08-04T00:50:24.606Z,23.00
2022-08-04T00:53:06.009Z,22.00
2022-08-04T00:55:53.447Z,21.60
2022-08-04T00:58:37.033Z,22.00
2022-08-04T01:01:06.962Z,21.90
2022-08-04T01:03:59.836Z,21.20
2022-08-04T01:06:38.050Z,22.00
2022-08-04T01:09:24.040Z,22.00
2022-08-04T01:12:12.031Z,21.80
2022-08-04T01:14:53.757Z,21.80
2022-08-04T01:17:26.686Z,21.30
2022-08-04T01:20:02.723Z,23.80
2022-08-04T01:23:01.122Z,21.70
2022-08-04T01:25:56.338Z,23.00
2022-08-04T01:28:47.830Z,21.60
2022-08-04T01:31:30.130Z,21.50
2022-08-04T01:34:04.483Z,20.20
2022-08-04T01:36:35.950Z,21.30
2022-08-04T01:39:27.405Z,21.20
2022-08-04T01:41:58.734Z,21.50
2022-08-04T01:44:29.005Z,21.00
2022-08-04T01:47:01.965Z,21.80
2022-08-04T01:49:32.224Z,21.00
2022-08-04T01:52:11.888Z,20.90
2022-08-04T01:54:43.662Z,20.80
2022-08-04T01:57:38.850Z,21.20
2022-08-04T02:00:02.222Z,20.80
2022-08-04T02:02:31.904Z,20.80
2022-08-04T02:05:00.126Z,18.50
2022-08-04T02:07:37.290Z,19.60
2022-08-04T02:10:08.671Z,20.70
2022-08-04T02:12:48.586Z,20.80
2022-08-04T02:15:27.992Z,20.60
2022-08-04T02:18:05.141Z,20.60
2022-08-04T02:20:36.541Z,20.50
2022-08-04T02:23:09.745Z,20.70
2022-08-04T02:25:46.706Z,20.40
2022-08-04T02:28:24.052Z,20.70
2022-08-04T02:31:05.237Z,20.20
2022-08-04T02:33:38.747Z,20.30
2022-08-04T02:36:10.779Z,20.70
2022-08-04T02:38:56.302Z,20.00
2022-08-04T02:41:26.461Z,20.10
2022-08-04T02:43:59.149Z,20.10
2022-08-04T02:46:28.021Z,20.00
2022-08-04T02:48:58.651Z,20.00
2022-08-04T02:51:30.205Z,20.80
2022-08-04T02:54:00.007Z,20.20
2022-08-04T02:56:32.119Z,20.10
2022-08-04T02:59:03.167Z,19.90
2022-08-04T03:01:32.143Z,20.00
2022-08-04T03:04:28.445Z,20.00
2022-08-04T03:07:37.472Z,19.90
2022-08-04T03:10:41.396Z,19.90
2022-08-04T03:13:45.728Z,19.90
2022-08-04T03:16:38.654Z,19.90
2022-08-04T03:20:01.391Z,19.90
2022-08-04T03:23:15.316Z,19.90
2022-08-04T03:26:03.677Z,19.80
2022-08-04T03:29:12.073Z,19.80
2022-08-04T03:32:13.042Z,19.80
2022-08-04T03:34:55.388Z,19.60
2022-08-04T03:37:39.917Z,19.60
2022-08-04T03:40:46.555Z,19.60
2022-08-04T03:43:57.415Z,19.70
2022-08-04T03:46:55.067Z,19.60
2022-08-04T03:49:59.729Z,19.60
2022-08-04T03:53:05.835Z,19.50
2022-08-04T03:55:58.304Z,19.60
2022-08-04T03:58:53.110Z,19.60
2022-08-04T04:02:02.878Z,19.80
2022-08-04T04:04:56.730Z,19.70
2022-08-04T04:08:01.701Z,19.60
2022-08-04T04:10:56.959Z,19.70
2022-08-04T04:14:00.693Z,19.60
2022-08-04T04:16:49.237Z,19.60
2022-08-04T04:19:58.633Z,19.70
2022-08-04T04:22:55.617Z,19.70
2022-08-04T04:25:37.014Z,19.70
2022-08-04T04:28:45.568Z,19.70
2022-08-04T04:31:43.080Z,19.70
2022-08-04T04:34:24.883Z,19.70
2022-08-04T04:37:05.199Z,19.80
2022-08-04T04:39:43.374Z,21.20
2022-08-04T04:42:33.099Z,19.80
2022-08-04T04:45:19.287Z,19.90
2022-08-04T04:48:08.201Z,19.90
2022-08-04T04:50:54.543Z,20.00
2022-08-04T04:53:29.504Z,20.00
2022-08-04T04:56:04.817Z,20.00
2022-08-04T04:58:36.215Z,20.10
2022-08-04T05:01:35.033Z,20.10
2022-08-04T05:04:22.424Z,20.00
2022-08-04T05:07:19.250Z,20.10
2022-08-04T05:09:55.729Z,20.20
2022-08-04T05:14:34.619Z,20.30
2022-08-04T05:15:54.621Z,20.30
2022-08-04T05:18:26.301Z,20.50
2022-08-04T05:20:59.436Z,20.60
2022-08-04T05:23:30.556Z,20.70
2022-08-04T05:26:02.221Z,20.70
2022-08-04T05:28:35.424Z,20.80
2022-08-04T05:31:12.076Z,20.80
2022-08-04T05:33:44.898Z,20.90
2022-08-04T05:36:32.657Z,21.70
2022-08-04T05:39:08.277Z,20.90
2022-08-04T05:41:45.333Z,21.10
2022-08-04T05:44:15.879Z,21.20
2022-08-04T05:46:54.150Z,21.30
2022-08-04T05:49:24.218Z,21.30
2022-08-04T05:51:55.261Z,21.40
2022-08-04T05:54:24.255Z,21.40
2022-08-04T05:56:52.965Z,21.50
2022-08-04T05:59:25.611Z,21.50
2022-08-04T06:01:58.890Z,21.60
2022-08-04T06:04:32.861Z,21.70
2022-08-04T06:07:05.085Z,21.70
2022-08-04T06:09:33.494Z,21.70
2022-08-04T06:12:04.732Z,21.80
2022-08-04T06:14:40.001Z,21.70
2022-08-04T06:19:57.867Z,21.80
2022-08-04T06:20:19.168Z,21.80
2022-08-04T06:22:55.984Z,21.80
2022-08-04T06:25:28.857Z,21.90
2022-08-04T06:27:58.673Z,22.00
2022-08-04T06:30:29.462Z,22.10
2022-08-04T06:33:03.576Z,22.20
2022-08-04T06:35:34.316Z,22.20
2022-08-04T06:38:04.226Z,22.40
2022-08-04T06:40:34.502Z,22.30
2022-08-04T06:43:05.869Z,22.30
2022-08-04T06:45:35.521Z,22.30
2022-08-04T06:48:08.867Z,22.40
2022-08-04T06:51:26.317Z,22.60
2022-08-04T06:53:26.457Z,23.40
2022-08-04T06:55:55.598Z,22.80
2022-08-04T06:58:24.956Z,22.90
2022-08-04T07:01:03.717Z,22.90
2022-08-04T07:03:35.474Z,24.10
2022-08-04T07:06:14.590Z,23.00
2022-08-04T07:08:43.733Z,23.00
2022-08-04T07:11:18.358Z,23.10
2022-08-04T07:13:47.718Z,23.20
2022-08-04T07:16:19.243Z,23.30
2022-08-04T07:18:50.258Z,23.40
2022-08-04T07:21:33.424Z,23.40
2022-08-04T07:24:01.970Z,23.50
2022-08-04T07:26:30.567Z,23.50
2022-08-04T07:28:59.660Z,23.60
2022-08-04T07:31:33.831Z,23.70
2022-08-04T07:34:17.414Z,23.80
2022-08-04T07:36:55.136Z,23.90
2022-08-04T07:39:28.176Z,24.00
2022-08-04T07:42:04.050Z,24.40
2022-08-04T07:44:32.974Z,24.10
2022-08-04T07:47:02.016Z,24.20
2022-08-04T07:49:56.411Z,24.30
2022-08-04T07:52:22.820Z,24.30
2022-08-04T07:54:55.704Z,24.40
2022-08-04T07:57:41.270Z,24.50
2022-08-04T08:00:12.043Z,24.50
2022-08-04T08:02:45.247Z,24.70
2022-08-04T08:08:04.620Z,24.90
2022-08-04T08:10:39.133Z,25.00
2022-08-04T08:13:09.429Z,25.00
2022-08-04T08:15:38.060Z,25.10
2022-08-04T08:18:06.239Z,25.20
2022-08-04T08:20:36.465Z,25.30
2022-08-04T08:23:04.733Z,25.40
2022-08-04T08:25:34.201Z,25.50
2022-08-04T08:28:06.276Z,25.60
2022-08-04T08:33:18.154Z,25.70
2022-08-04T08:35:54.834Z,25.80
2022-08-04T08:38:39.271Z,25.90
2022-08-04T08:41:33.766Z,26.70
2022-08-04T08:44:30.066Z,26.10
2022-08-04T08:47:17.007Z,26.20
2022-08-04T08:50:05.046Z,26.20
2022-08-04T08:53:02.228Z,26.30
2022-08-04T08:55:44.672Z,26.40
2022-08-04T08:58:39.819Z,26.40
2022-08-04T09:01:17.362Z,26.60
2022-08-04T09:04:23.729Z,27.50
2022-08-04T09:07:08.421Z,26.70
2022-08-04T09:09:54.701Z,26.80
2022-08-04T09:12:31.106Z,27.00
2022-08-04T09:15:06.510Z,27.80
2022-08-04T09:17:41.395Z,27.30
2022-08-04T09:20:18.523Z,27.40
2022-08-04T09:22:52.979Z,28.20
2022-08-04T09:25:27.044Z,27.50
2022-08-04T09:28:00.669Z,27.50
2022-08-04T09:30:40.464Z,27.50
2022-08-04T09:33:17.021Z,27.60
2022-08-04T09:35:58.289Z,27.70
2022-08-04T09:38:36.096Z,27.80
2022-08-04T09:41:35.889Z,27.80
2022-08-04T09:44:51.294Z,28.00
2022-08-04T09:47:15.531Z,28.10
2022-08-04T09:49:52.020Z,28.20
2022-08-04T09:52:30.607Z,28.30
2022-08-04T09:55:09.389Z,28.30
2022-08-04T09:57:54.693Z,28.50
2022-08-04T10:00:38.501Z,30.20
2022-08-04T10:03:17.486Z,28.50
2022-08-04T10:06:01.455Z,28.70
2022-08-04T10:08:54.060Z,28.90
2022-08-04T10:11:55.448Z,29.00
2022-08-04T10:14:45.619Z,29.10
2022-08-04T10:17:29.207Z,29.10
2022-08-04T10:20:04.355Z,28.10
2022-08-04T10:22:49.974Z,29.20
2022-08-04T10:26:05.189Z,29.30
2022-08-04T10:28:34.738Z,29.40
2022-08-04T10:31:09.893Z,29.30
2022-08-04T10:33:46.107Z,29.40
2022-08-04T10:36:20.089Z,29.40
2022-08-04T10:38:58.459Z,29.50
2022-08-04T10:41:33.977Z,29.50
2022-08-04T10:44:16.006Z,29.60
2022-08-04T10:46:50.867Z,29.70
2022-08-04T10:49:25.126Z,29.90
2022-08-04T10:52:03.052Z,30.10
2022-08-04T10:54:43.814Z,30.20
2022-08-04T10:57:16.517Z,30.40
2022-08-04T10:59:52.479Z,30.50
2022-08-04T11:02:37.554Z,30.50
2022-08-04T11:05:16.977Z,30.70
2022-08-04T11:07:50.458Z,30.20
2022-08-04T11:10:22.680Z,30.90
2022-08-04T11:12:58.934Z,30.80
2022-08-04T11:15:34.637Z,30.80
2022-08-04T11:18:17.038Z,30.80
2022-08-04T11:20:53.423Z,31.00
2022-08-04T11:23:28.781Z,31.30
2022-08-04T11:26:02.976Z,31.80
2022-08-04T11:28:45.008Z,31.50
2022-08-04T11:31:21.547Z,31.60
2022-08-04T11:33:57.947Z,31.60
2022-08-04T11:36:36.040Z,31.70
2022-08-04T11:39:11.698Z,31.80
2022-08-04T11:41:49.766Z,31.70
2022-08-04T11:44:25.322Z,31.70
2022-08-04T11:46:58.074Z,31.60
2022-08-04T11:49:56.836Z,31.90
2022-08-04T11:52:29.083Z,32.10
2022-08-04T11:55:01.217Z,32.10
2022-08-04T11:57:36.402Z,32.00
2022-08-04T12:00:12.494Z,31.20
2022-08-04T12:03:09.372Z,32.20
2022-08-04T12:05:49.521Z,32.30
2022-08-04T12:08:41.925Z,32.40
2022-08-04T12:11:22.026Z,32.60
2022-08-04T12:14:05.178Z,32.50
2022-08-04T12:16:45.427Z,32.60
2022-08-04T12:19:20.862Z,32.50
2022-08-04T12:22:04.085Z,32.50
2022-08-04T12:24:37.594Z,32.60
2022-08-04T12:27:13.436Z,32.80
2022-08-04T12:29:54.299Z,32.70
2022-08-04T12:32:39.775Z,32.70
2022-08-04T12:35:22.045Z,33.00
2022-08-04T12:38:02.881Z,33.10
2022-08-04T12:40:39.560Z,31.40
2022-08-04T12:43:17.261Z,33.20
2022-08-04T12:45:53.598Z,33.40
2022-08-04T12:48:24.169Z,31.10
2022-08-04T12:50:55.611Z,33.50
2022-08-04T12:53:35.066Z,33.60
2022-08-04T12:56:31.117Z,33.70
2022-08-04T12:59:04.086Z,33.60
2022-08-04T13:02:08.036Z,33.50
2022-08-04T13:04:29.306Z,33.60
2022-08-04T13:07:03.595Z,34.00
2022-08-04T13:09:37.363Z,33.70
2022-08-04T13:12:14.433Z,33.70
2022-08-04T13:14:48.073Z,33.80
2022-08-04T13:17:17.114Z,33.90
2022-08-04T13:19:50.216Z,33.90
2022-08-04T13:22:27.319Z,33.80
2022-08-04T13:26:40.382Z,34.10
2022-08-04T13:27:55.471Z,34.00
2022-08-04T13:30:28.443Z,33.90
2022-08-04T13:33:00.142Z,34.30
2022-08-04T13:35:54.433Z,32.80
2022-08-04T13:38:21.247Z,34.50
2022-08-04T13:40:53.622Z,35.00
2022-08-04T13:44:15.557Z,34.90
2022-08-04T13:46:27.862Z,35.40
2022-08-04T13:51:59.060Z,35.80
2022-08-04T13:54:30.338Z,36.10
2022-08-04T13:57:03.062Z,35.70
2022-08-04T13:59:37.796Z,35.30
2022-08-04T14:02:13.544Z,33.40
2022-08-04T14:04:54.468Z,34.70
2022-08-04T14:07:23.845Z,34.90
2022-08-04T14:10:03.501Z,35.00
2022-08-04T14:12:38.722Z,35.20
2022-08-04T14:16:02.949Z,35.20
2022-08-04T14:18:23.345Z,35.50
2022-08-04T14:21:03.794Z,35.40
2022-08-04T14:23:47.202Z,35.20
2022-08-04T14:26:32.625Z,35.50
2022-08-04T14:29:26.948Z,35.30
2022-08-04T14:32:03.002Z,35.60
2022-08-04T14:34:33.488Z,35.90
2022-08-04T14:37:17.098Z,35.90
2022-08-04T14:40:17.494Z,36.00
2022-08-04T14:42:42.457Z,34.30
2022-08-04T14:45:13.318Z,35.40
2022-08-04T14:47:52.140Z,36.10
2022-08-04T14:50:22.860Z,35.80
2022-08-04T14:52:51.019Z,35.90
2022-08-04T14:55:21.715Z,35.80
2022-08-04T14:58:35.053Z,35.90
2022-08-04T15:00:43.240Z,35.80
2022-08-04T15:03:13.538Z,36.30
2022-08-04T15:06:03.818Z,36.20
2022-08-04T15:08:35.435Z,36.30
2022-08-04T15:11:06.510Z,36.50
2022-08-04T15:13:35.155Z,36.70
2022-08-04T15:16:07.927Z,37.30
2022-08-04T15:18:39.266Z,37.60
2022-08-04T15:21:14.332Z,37.90
2022-08-04T15:23:43.393Z,38.40
2022-08-04T15:26:24.270Z,38.50
2022-08-04T15:28:57.465Z,38.30
2022-08-04T15:32:07.865Z,37.80
2022-08-04T15:34:26.726Z,38.10
2022-08-04T15:36:58.155Z,38.20
2022-08-04T15:39:39.717Z,39.00
2022-08-04T15:42:23.317Z,38.40
2022-08-04T15:46:42.000Z,38.60
2022-08-04T15:48:30.931Z,38.60
2022-08-04T15:51:15.152Z,39.00
2022-08-04T15:54:27.450Z,39.40
2022-08-04T15:57:02.080Z,40.30
2022-08-04T16:00:01.766Z,38.60
2022-08-04T16:02:51.354Z,38.50
2022-08-04T16:05:50.085Z,38.90
2022-08-04T16:08:20.149Z,39.40
2022-08-04T16:10:54.476Z,39.90
2022-08-04T16:13:24.446Z,40.10
2022-08-04T16:15:56.314Z,40.50
2022-08-04T16:19:04.412Z,40.60
2022-08-04T16:21:36.557Z,41.00
2022-08-04T16:24:21.971Z,40.40
2022-08-04T16:26:58.585Z,39.40
2022-08-04T16:29:39.432Z,39.30
2022-08-04T16:32:29.584Z,40.00
2022-08-04T16:35:01.887Z,37.90
2022-08-04T16:37:38.522Z,40.80
2022-08-04T16:40:37.693Z,40.50
2022-08-04T16:43:10.420Z,40.00
2022-08-04T16:45:48.004Z,40.40
2022-08-04T16:48:19.350Z,39.80
2022-08-04T16:50:57.439Z,38.70
2022-08-04T16:53:53.650Z,38.50
2022-08-04T16:56:33.223Z,37.90
2022-08-04T16:59:10.903Z,39.30
2022-08-04T17:01:46.746Z,39.50
2022-08-04T17:04:17.393Z,36.00
2022-08-04T17:06:47.827Z,38.60
2022-08-04T17:09:28.197Z,38.40
2022-08-04T17:11:59.486Z,39.00
2022-08-04T17:14:30.570Z,38.80
2022-08-04T17:17:04.903Z,38.20
2022-08-04T17:19:37.659Z,38.30
2022-08-04T17:22:10.486Z,38.80
2022-08-04T17:24:43.265Z,38.50
2022-08-04T17:28:09.549Z,38.20
2022-08-04T17:30:06.475Z,36.50
2022-08-04T17:32:40.305Z,38.60
2022-08-04T17:35:12.772Z,37.90
2022-08-04T17:37:52.627Z,37.40
2022-08-04T17:40:26.761Z,37.30
2022-08-04T17:44:04.223Z,37.10
2022-08-04T17:46:28.870Z,39.70
2022-08-04T17:49:24.222Z,37.20
2022-08-04T17:52:05.143Z,35.90
2022-08-04T17:54:39.525Z,36.90
2022-08-04T17:57:25.126Z,36.40
2022-08-04T17:59:59.551Z,36.10
2022-08-04T18:02:34.466Z,35.60
2022-08-04T18:05:54.016Z,35.30
2022-08-04T18:08:34.484Z,35.20
2022-08-04T18:11:22.444Z,34.50
2022-08-04T18:14:01.506Z,34.60
2022-08-04T18:16:31.824Z,33.80
2022-08-04T18:19:11.928Z,33.50
2022-08-04T18:21:46.359Z,33.30
2022-08-04T18:24:34.511Z,33.00
2022-08-04T18:27:06.612Z,32.80
2022-08-04T18:29:50.233Z,32.70
2022-08-04T18:32:35.044Z,32.50
2022-08-04T18:35:05.790Z,32.00
2022-08-04T18:37:40.864Z,31.70
2022-08-04T18:40:53.238Z,31.80
2022-08-04T18:43:27.855Z,31.40
2022-08-04T18:45:59.730Z,31.30
2022-08-04T18:48:36.066Z,33.40
2022-08-04T18:51:22.508Z,30.90
2022-08-04T18:53:58.613Z,31.00
2022-08-04T18:56:31.590Z,27.30
2022-08-04T18:59:03.017Z,30.70
2022-08-04T19:02:16.468Z,30.60
2022-08-04T19:04:33.099Z,30.80
2022-08-04T19:07:23.555Z,31.00
2022-08-04T19:09:54.213Z,30.70
2022-08-04T19:12:26.727Z,30.40
2022-08-04T19:14:58.039Z,30.30
2022-08-04T19:17:57.361Z,30.00
2022-08-04T19:20:24.489Z,29.80
2022-08-04T19:24:10.582Z,29.70
2022-08-04T19:26:03.872Z,29.60
2022-08-04T19:28:34.435Z,29.40
2022-08-04T19:31:04.088Z,29.40
2022-08-04T19:33:59.020Z,29.30
2022-08-04T19:36:27.978Z,29.30
2022-08-04T19:38:57.542Z,29.20
2022-08-04T19:41:26.971Z,29.20
2022-08-04T19:43:56.183Z,29.10
2022-08-04T19:46:28.634Z,29.10
2022-08-04T19:49:00.323Z,29.00
2022-08-04T19:51:30.489Z,29.60
2022-08-04T19:54:14.946Z,28.80
2022-08-04T19:56:46.785Z,28.70
2022-08-04T19:59:17.178Z,28.80
2022-08-04T20:01:46.188Z,28.60
2022-08-04T20:04:16.613Z,28.50
2022-08-04T20:06:45.840Z,28.40
2022-08-04T20:09:24.439Z,28.30
2022-08-04T20:11:55.376Z,28.20
2022-08-04T20:14:31.620Z,28.20
2022-08-04T20:17:02.577Z,28.10
2022-08-04T20:19:32.501Z,28.00
2022-08-04T20:22:03.000Z,28.00
2022-08-04T20:24:38.645Z,27.90
2022-08-04T20:27:15.182Z,27.40
2022-08-04T20:29:46.104Z,27.70
2022-08-04T20:32:19.473Z,27.80
2022-08-04T20:34:51.392Z,27.70
2022-08-04T20:37:21.708Z,27.80
2022-08-04T20:39:55.350Z,27.70
2022-08-04T20:42:26.962Z,27.70
2022-08-04T20:44:57.302Z,27.70
2022-08-04T20:47:26.278Z,27.60
2022-08-04T20:50:00.923Z,27.60
2022-08-04T20:52:30.532Z,27.60
2022-08-04T20:54:58.951Z,27.50
2022-08-04T20:57:48.499Z,27.30
2022-08-04T21:00:16.539Z,27.50
2022-08-04T21:02:44.745Z,27.40
2022-08-04T21:05:14.350Z,27.40
2022-08-04T21:07:44.033Z,27.30
2022-08-04T21:10:17.246Z,27.20
2022-08-04T21:12:50.557Z,27.20
2022-08-04T21:15:24.603Z,27.00
2022-08-04T21:17:58.742Z,26.90
2022-08-04T21:23:22.548Z,27.10
2022-08-04T21:25:56.843Z,26.80
2022-08-04T21:28:26.249Z,26.70
2022-08-04T21:30:55.971Z,26.70
2022-08-04T21:33:28.221Z,26.80
2022-08-04T21:36:19.979Z,26.50
2022-08-04T21:38:51.291Z,26.40
2022-08-04T21:44:11.224Z,26.30
2022-08-04T21:46:44.315Z,26.20
2022-08-04T21:49:12.704Z,26.20
2022-08-04T21:54:30.266Z,26.10
2022-08-04T21:56:58.303Z,26.50
2022-08-04T21:59:31.526Z,26.10
2022-08-04T22:02:01.799Z,27.40
2022-08-04T22:04:31.620Z,26.10
2022-08-04T22:07:03.142Z,26.20
2022-08-04T22:09:38.892Z,26.10
2022-08-04T22:12:11.907Z,26.10
2022-08-04T22:14:41.028Z,26.10
2022-08-04T22:17:13.530Z,25.90
2022-08-04T22:19:55.681Z,25.90
2022-08-04T22:22:29.112Z,25.90
2022-08-04T22:25:01.513Z,25.90
2022-08-04T22:27:55.053Z,25.90
2022-08-04T22:30:24.202Z,26.10
2022-08-04T22:32:57.362Z,25.80
2022-08-04T22:35:36.151Z,25.60
2022-08-04T22:38:28.007Z,25.80
2022-08-04T22:41:01.945Z,25.80
2022-08-04T22:43:33.569Z,25.70
2022-08-04T22:46:05.353Z,25.60
2022-08-04T22:48:35.345Z,25.90
2022-08-04T22:51:03.960Z,25.60
2022-08-04T22:53:33.940Z,25.50
2022-08-04T22:56:09.184Z,25.40
2022-08-04T22:58:44.800Z,25.30
2022-08-04T23:01:15.502Z,25.30
2022-08-04T23:03:55.205Z,25.30
2022-08-04T23:06:25.416Z,25.30
2022-08-04T23:08:55.371Z,25.30
2022-08-04T23:11:23.613Z,25.20
2022-08-04T23:13:51.736Z,25.60
2022-08-04T23:16:21.198Z,25.10
2022-08-04T23:18:52.848Z,25.10
2022-08-04T23:21:24.230Z,25.10
2022-08-04T23:24:00.933Z,25.10
2022-08-04T23:26:31.312Z,25.00
2022-08-04T23:28:59.955Z,25.00
2022-08-04T23:31:41.352Z,25.00
2022-08-04T23:34:19.932Z,24.70
2022-08-04T23:36:49.285Z,24.50
2022-08-04T23:39:19.492Z,24.40
2022-08-04T23:41:53.866Z,24.30
2022-08-04T23:44:25.209Z,24.50
2022-08-04T23:46:59.343Z,24.50
2022-08-04T23:49:42.238Z,24.30
2022-08-04T23:52:23.521Z,24.30
2022-08-04T23:54:59.995Z,24.10
2022-08-04T23:57:31.278Z,24.10
